»·PEaware :: N318MT KTOA-KMHV

N318MT :: KTOA-KMHV

FLIGHT INFORMATION

Flight Status: Arrived
Operator: Privately registered:
United States
More flights under this callsign
Pilot: Max H. (24278)
Aircraft: PILATUS PC-12 EAGLE
(PC12)
More flights by this aircraft type
Origin: KTOA Zamperini
United States
Destination: KMHV Mojave
United States
More flights between these airports :: More routes between these airports
Route: LAX170 LIMBO V8 WILMA V25 LAX V165 LANGE V518 PMD
File this flight plan on PilotEdge
Remarks:
Altitude:
(Current/Filed)
14,000ft
Speed:
(Current/Filed)
210kts
Departed: 12-Jan-20 02:25 PM
Arrived: 12-Jan-20 02:54 PM
Distance/Time
Traveled:
76nm/0:29
Distance/Time
To Go:
Arrived

Flight Plot

Page will automatically refresh every two minutes.

Flight plan parsing failed; only flown route is shown


Map Options




Map Legend


Flown Route
Filed Route
Departure Airport
Arrival Airport
Navaid (VOR, NDB)
Fix

Horizontal Profiles

Position Reports

Time Latitude Longitude Heading Altitude Ground
Speed
12-Jan-20 13:49 33.801075 -118.340642 218 101ft 0kts
12-Jan-20 13:50 33.801075 -118.340642 219 101ft 0kts
12-Jan-20 13:50 33.801075 -118.340642 218 101ft 0kts
12-Jan-20 13:52 33.801075 -118.340642 218 101ft 0kts
12-Jan-20 13:53 33.801075 -118.340642 218 101ft 0kts
12-Jan-20 13:53 33.801075 -118.340642 218 101ft 0kts
12-Jan-20 13:55 33.801075 -118.340642 218 101ft 0kts
12-Jan-20 13:55 33.801075 -118.340642 218 101ft 0kts
12-Jan-20 13:56 33.801075 -118.340642 218 101ft 0kts
12-Jan-20 13:58 33.801075 -118.340642 218 101ft 0kts
12-Jan-20 13:58 33.801075 -118.340642 218 101ft 0kts
12-Jan-20 13:59 33.801075 -118.340642 218 101ft 0kts
12-Jan-20 14:01 33.801075 -118.340642 218 101ft 0kts
12-Jan-20 14:01 33.801075 -118.340642 218 101ft 0kts
12-Jan-20 14:02 33.801075 -118.340642 218 101ft 0kts
12-Jan-20 14:03 33.801075 -118.340642 218 101ft 0kts
12-Jan-20 14:04 33.801075 -118.340642 218 101ft 0kts
12-Jan-20 14:05 33.801075 -118.340642 218 101ft 0kts
12-Jan-20 14:06 33.801075 -118.340642 218 101ft 0kts
12-Jan-20 14:07 33.801075 -118.340642 218 101ft 0kts
12-Jan-20 14:08 33.801075 -118.340642 218 101ft 0kts
12-Jan-20 14:09 33.801075 -118.340642 218 101ft 0kts
12-Jan-20 14:10 33.801075 -118.340642 218 101ft 0kts
12-Jan-20 14:11 33.801075 -118.340642 218 101ft 0kts
12-Jan-20 14:12 33.801075 -118.340642 218 101ft 0kts
12-Jan-20 14:13 33.801075 -118.340642 218 101ft 0kts
12-Jan-20 14:14 33.801075 -118.340642 218 101ft 0kts
12-Jan-20 14:15 33.801075 -118.340642 218 101ft 0kts
12-Jan-20 14:16 33.801075 -118.340642 218 101ft 0kts
12-Jan-20 14:17 33.801075 -118.340642 219 101ft 0kts
12-Jan-20 14:18 33.801075 -118.340642 219 101ft 0kts
12-Jan-20 14:19 33.801306 -118.340847 70 101ft 3kts
12-Jan-20 14:20 33.799448 -118.336661 129 101ft 23kts
12-Jan-20 14:21 33.799083 -118.333300 36 101ft 3kts
12-Jan-20 14:22 33.799110 -118.333277 37 101ft 0kts
12-Jan-20 14:23 33.799110 -118.333277 37 101ft 0kts
12-Jan-20 14:24 33.807262 -118.344593 304 199ft 132kts
12-Jan-20 14:25 33.836303 -118.388526 306 1362ft 187kts
12-Jan-20 14:26 33.870761 -118.439804 306 2582ft 198kts
12-Jan-20 14:27 33.858027 -118.480271 161 3856ft 214kts
12-Jan-20 14:28 33.803922 -118.449091 171 5059ft 217kts
12-Jan-20 14:29 33.771394 -118.396047 57 6317ft 229kts
12-Jan-20 14:30 33.825777 -118.390001 336 7014ft 225kts
12-Jan-20 14:31 33.887807 -118.415107 337 7009ft 241kts
12-Jan-20 14:32 33.953926 -118.433661 352 7005ft 250kts
12-Jan-20 14:33 34.024115 -118.438416 352 7002ft 255kts
12-Jan-20 14:34 34.095840 -118.442954 352 6999ft 260kts
12-Jan-20 14:35 34.169412 -118.447586 358 7027ft 250kts
12-Jan-20 14:36 34.232091 -118.451564 356 7014ft 215kts
12-Jan-20 14:37 34.291171 -118.455189 355 7016ft 211kts
12-Jan-20 14:38 34.349931 -118.459218 354 7019ft 210kts
12-Jan-20 14:39 34.401108 -118.429741 54 7028ft 226kts
12-Jan-20 14:40 34.439957 -118.369715 46 7030ft 226kts
12-Jan-20 14:41 34.479132 -118.308760 47 7023ft 229kts
12-Jan-20 14:42 34.518635 -118.245519 46 7008ft 231kts
12-Jan-20 14:43 34.572212 -118.211984 13 6999ft 219kts
12-Jan-20 14:44 34.631035 -118.188953 11 6999ft 226kts
12-Jan-20 14:45 34.693576 -118.181764 359 6998ft 227kts
12-Jan-20 14:46 34.756898 -118.176917 359 6995ft 229kts
12-Jan-20 14:47 34.823776 -118.171302 359 6491ft 241kts
12-Jan-20 14:48 34.890638 -118.165527 358 6481ft 236kts
12-Jan-20 14:49 34.952462 -118.158041 3 6461ft 209kts
12-Jan-20 14:50 35.004258 -118.137337 16 5907ft 176kts
12-Jan-20 14:51 35.048652 -118.119247 345 4396ft 134kts
12-Jan-20 14:52 35.059086 -118.141785 271 2824ft 77kts
12-Jan-20 14:53 35.058297 -118.149614 134 2769ft 0kts
12-Jan-20 14:54 35.058178 -118.149529 167 2769ft 7kts
12-Jan-20 14:55 35.057234 -118.150325 359 2769ft 0kts
12-Jan-20 14:56 35.057234 -118.150325 359 2769ft 0kts
12-Jan-20 14:57 35.057234 -118.150325 359 2769ft 0kts
12-Jan-20 14:58 35.057234 -118.150325 359 2769ft 0kts
12-Jan-20 14:59 35.057234 -118.150325 359 2769ft 0kts
12-Jan-20 15:00 35.057234 -118.150325 359 2769ft 0kts
12-Jan-20 15:01 35.057234 -118.150325 359 2769ft 0kts
12-Jan-20 15:02 35.057234 -118.150325 359 2769ft 0kts
12-Jan-20 15:03 35.057234 -118.150325 359 2769ft 0kts
12-Jan-20 15:04 35.057234 -118.150325 359 2769ft 0kts
12-Jan-20 15:05 35.057234 -118.150325 359 2769ft 0kts
12-Jan-20 15:06 35.057234 -118.150325 359 2769ft 0kts
12-Jan-20 15:07 35.057234 -118.150325 359 2769ft 0kts

Navigation Log

Ident Type
Flight plan parsing failed, navigation log unavailable